Time;durP1;ratioP1;P1;durP2;ratioP2;P2;SDS_P1;SDS_P2;PMS_P1;PMS_P2;Temp;Humidity;BMP_temperature;BMP_pressure;BME280_temperature;BME280_humidity;BME280_pressure;Samples;Min_cycle;Max_cycle;Signal;HPM_P1;HPM_P2
2023/12/30 00:00:18;;;;;;;47.60;32.08;;;2.40;99.90;;;;;;6200931;23;20255;-60
2023/12/30 00:02:44;;;;;;;47.40;32.65;;;2.30;99.90;;;;;;6196803;23;20009;-70
2023/12/30 00:05:09;;;;;;;50.92;34.88;;;2.30;99.90;;;;;;6201525;23;20011;-77
2023/12/30 00:07:35;;;;;;;46.33;33.15;;;2.20;99.90;;;;;;6198773;23;20032;-75
2023/12/30 00:10:00;;;;;;;45.65;33.03;;;2.10;99.90;;;;;;6195670;23;20729;-75
2023/12/30 00:12:27;;;;;;;40.85;30.35;;;2.10;99.90;;;;;;6195922;23;20051;-76
2023/12/30 00:14:52;;;;;;;38.25;27.55;;;2.20;99.90;;;;;;6198165;23;20011;-74
2023/12/30 00:17:18;;;;;;;37.75;27.65;;;2.30;99.90;;;;;;6198336;23;20016;-75
2023/12/30 00:19:45;;;;;;;35.58;27.70;;;2.40;99.90;;;;;;6194005;23;20493;-76
2023/12/30 00:22:11;;;;;;;43.50;30.67;;;2.40;99.90;;;;;;6196148;23;20083;-71
2023/12/30 00:24:37;;;;;;;40.95;29.92;;;2.40;99.90;;;;;;6201566;23;20477;-74
2023/12/30 00:27:03;;;;;;;41.13;30.48;;;2.40;99.90;;;;;;6199957;23;20047;-74
2023/12/30 00:29:29;;;;;;;40.58;29.90;;;2.20;99.90;;;;;;6201886;23;20001;-75
2023/12/30 00:31:54;;;;;;;42.00;28.02;;;2.20;99.90;;;;;;6201036;23;20018;-75
2023/12/30 00:34:20;;;;;;;39.60;27.20;;;2.10;99.90;;;;;;6199257;23;20107;-81
2023/12/30 00:36:46;;;;;;;36.78;27.65;;;2.00;99.90;;;;;;6197509;23;20009;-78
2023/12/30 00:39:12;;;;;;;40.10;29.30;;;1.90;99.90;;;;;;6188110;23;20173;-76
2023/12/30 00:41:37;;;;;;;39.20;28.00;;;2.00;99.90;;;;;;6199009;23;20080;-71
2023/12/30 00:44:03;;;;;;;34.50;25.63;;;2.00;99.90;;;;;;6199814;23;20008;-70
2023/12/30 00:46:29;;;;;;;35.85;26.65;;;2.00;99.90;;;;;;6199483;23;20043;-71
2023/12/30 00:48:54;;;;;;;37.70;26.58;;;2.00;99.90;;;;;;6198867;23;20004;-70
2023/12/30 00:51:20;;;;;;;37.85;27.42;;;2.00;99.90;;;;;;6199562;23;20095;-71
2023/12/30 00:53:46;;;;;;;37.92;28.25;;;2.00;99.90;;;;;;6197925;23;20005;-71
2023/12/30 00:56:11;;;;;;;42.20;28.60;;;1.80;99.90;;;;;;6196482;23;20008;-71
2023/12/30 00:58:37;;;;;;;35.40;26.33;;;1.80;99.90;;;;;;6197119;23;20020;-79
2023/12/30 01:01:03;;;;;;;37.08;26.73;;;1.70;99.90;;;;;;6197002;23;20287;-79
2023/12/30 01:03:28;;;;;;;35.83;26.77;;;1.50;99.90;;;;;;6196381;23;20004;-79
2023/12/30 01:05:54;;;;;;;36.92;27.48;;;1.30;99.90;;;;;;6198093;23;20099;-79
2023/12/30 01:08:20;;;;;;;36.22;26.85;;;1.30;99.90;;;;;;6194458;23;20008;-79
2023/12/30 01:10:45;;;;;;;38.20;26.83;;;1.40;99.90;;;;;;6199864;23;20012;-79
2023/12/30 01:13:11;;;;;;;37.78;26.90;;;1.40;99.90;;;;;;6195875;23;20043;-79
2023/12/30 01:15:37;;;;;;;34.33;25.88;;;1.60;99.90;;;;;;6198817;23;20009;-79
2023/12/30 01:18:03;;;;;;;35.53;25.27;;;1.60;99.90;;;;;;6198397;23;20059;-80
2023/12/30 01:20:30;;;;;;;35.90;26.63;;;1.60;99.90;;;;;;6196835;23;20016;-79
2023/12/30 01:22:55;;;;;;;37.75;25.73;;;1.60;99.90;;;;;;6198062;23;20186;-80
2023/12/30 01:25:21;;;;;;;37.35;27.50;;;1.60;99.90;;;;;;6198271;23;20437;-80
2023/12/30 01:27:47;;;;;;;37.20;26.90;;;1.60;99.90;;;;;;6199944;23;20008;-79
2023/12/30 01:30:12;;;;;;;35.47;26.50;;;1.50;99.90;;;;;;6198366;23;20090;-79
2023/12/30 01:32:38;;;;;;;37.20;26.80;;;1.50;99.90;;;;;;6198258;23;20001;-80
2023/12/30 01:35:04;;;;;;;33.83;26.20;;;1.50;99.90;;;;;;6199233;23;20013;-79
2023/12/30 01:37:30;;;;;;;33.50;25.38;;;1.50;99.90;;;;;;6195982;23;20418;-71
2023/12/30 01:39:56;;;;;;;36.15;25.75;;;1.50;99.90;;;;;;6198508;23;20009;-71
2023/12/30 01:42:21;;;;;;;33.65;25.10;;;1.50;99.90;;;;;;6198305;23;20071;-71
2023/12/30 01:44:47;;;;;;;31.80;24.15;;;1.50;99.90;;;;;;6196550;23;20027;-71
2023/12/30 01:47:13;;;;;;;29.95;22.58;;;1.60;99.90;;;;;;6199852;23;20482;-71
2023/12/30 01:49:39;;;;;;;30.33;22.95;;;1.60;99.90;;;;;;6196544;23;20007;-72
2023/12/30 01:52:06;;;;;;;29.33;22.83;;;1.60;99.90;;;;;;6198607;23;20008;-71
2023/12/30 01:54:32;;;;;;;26.42;20.75;;;1.70;99.90;;;;;;6198483;23;20091;-71
2023/12/30 01:56:59;;;;;;;32.50;24.75;;;1.70;99.90;;;;;;6198455;23;20065;-72
2023/12/30 01:59:26;;;;;;;32.78;23.95;;;1.70;99.90;;;;;;6196702;23;20069;-71
2023/12/30 02:01:53;;;;;;;35.20;25.42;;;1.60;99.90;;;;;;6195962;23;20434;-71
2023/12/30 02:04:19;;;;;;;36.22;26.00;;;1.60;99.90;;;;;;6198301;23;20009;-72
2023/12/30 02:06:45;;;;;;;36.53;25.55;;;1.40;99.90;;;;;;6197800;23;20531;-72
2023/12/30 02:09:10;;;;;;;33.20;24.55;;;1.40;99.90;;;;;;6197102;23;20000;-71
2023/12/30 02:11:37;;;;;;;35.13;24.85;;;1.30;99.90;;;;;;6198368;23;20013;-71
2023/12/30 02:14:03;;;;;;;37.08;27.05;;;1.20;99.90;;;;;;6198319;23;20036;-72
2023/12/30 02:16:28;;;;;;;43.58;28.63;;;1.00;99.90;;;;;;6198435;23;20068;-71
2023/12/30 02:18:54;;;;;;;46.40;28.35;;;1.00;99.90;;;;;;6196053;23;20410;-72
2023/12/30 02:21:20;;;;;;;47.50;28.05;;;1.10;99.90;;;;;;6197328;23;20008;-72
2023/12/30 02:23:55;;;;;;;41.35;26.23;;;0.90;99.90;;;;;;6194593;23;20024;-72
2023/12/30 02:26:21;;;;;;;39.05;25.45;;;0.70;99.90;;;;;;6198047;23;20005;-72
2023/12/30 02:28:46;;;;;;;36.90;26.98;;;0.80;99.90;;;;;;6196481;23;20088;-72
2023/12/30 02:31:12;;;;;;;36.60;26.58;;;0.90;99.90;;;;;;6199732;23;20004;-72
2023/12/30 02:33:37;;;;;;;40.80;25.27;;;1.10;99.90;;;;;;6200335;23;20012;-72
2023/12/30 02:36:03;;;;;;;32.60;24.08;;;1.20;99.90;;;;;;6200631;23;20005;-71
2023/12/30 02:38:29;;;;;;;45.30;27.13;;;1.30;99.90;;;;;;6199537;23;20013;-72
2023/12/30 02:40:54;;;;;;;55.65;30.20;;;1.50;99.90;;;;;;6198804;23;20027;-72
2023/12/30 02:43:20;;;;;;;64.95;30.88;;;1.60;99.90;;;;;;6200002;23;20015;-72
2023/12/30 02:45:45;;;;;;;86.22;33.28;;;1.70;99.90;;;;;;6200812;23;20028;-72
2023/12/30 02:48:11;;;;;;;70.63;32.47;;;1.70;99.90;;;;;;6200839;23;20012;-72
2023/12/30 02:50:37;;;;;;;109.60;37.28;;;1.70;99.90;;;;;;6202593;23;20001;-72
2023/12/30 02:53:02;;;;;;;78.55;33.00;;;1.60;99.90;;;;;;6202120;23;20015;-72
2023/12/30 02:55:28;;;;;;;75.25;32.85;;;1.50;99.90;;;;;;6202399;23;20005;-72
2023/12/30 02:57:53;;;;;;;82.32;33.95;;;1.40;99.90;;;;;;6203546;23;20335;-73
2023/12/30 03:00:19;;;;;;;55.85;32.40;;;1.20;99.90;;;;;;6199994;23;20036;-72
2023/12/30 03:02:45;;;;;;;48.70;30.90;;;1.20;99.90;;;;;;6202721;23;20411;-72
2023/12/30 03:05:10;;;;;;;64.47;33.72;;;1.40;99.90;;;;;;6201812;23;20008;-72
2023/12/30 03:07:36;;;;;;;56.05;30.23;;;1.60;99.90;;;;;;6199411;23;20512;-80
2023/12/30 03:10:04;;;;;;;68.93;30.15;;;1.70;99.90;;;;;;6201932;23;20004;-79
2023/12/30 03:12:29;;;;;;;63.97;31.10;;;1.80;99.90;;;;;;6202561;23;20008;-79
2023/12/30 03:14:55;;;;;;;74.90;29.27;;;1.90;99.90;;;;;;6200072;23;20082;-79
2023/12/30 03:17:20;;;;;;;82.18;34.17;;;2.00;99.90;;;;;;6202649;23;20004;-80
2023/12/30 03:19:46;;;;;;;77.40;34.08;;;2.00;99.90;;;;;;6202844;23;20450;-80
2023/12/30 03:22:11;;;;;;;86.18;35.00;;;2.00;99.90;;;;;;6202157;23;19996;-79
2023/12/30 03:24:37;;;;;;;70.40;31.08;;;1.90;99.90;;;;;;6202240;23;20013;-80
2023/12/30 03:27:03;;;;;;;74.60;32.65;;;1.90;99.90;;;;;;6203129;23;20001;-80
2023/12/30 03:29:29;;;;;;;65.15;29.20;;;1.80;99.90;;;;;;6199112;23;20335;-80
2023/12/30 03:31:55;;;;;;;73.40;28.50;;;1.70;99.90;;;;;;6204293;23;20004;-80
2023/12/30 03:34:20;;;;;;;56.50;25.75;;;1.70;99.90;;;;;;6201734;23;20079;-80
2023/12/30 03:36:46;;;;;;;58.97;27.65;;;1.60;99.90;;;;;;6203824;23;20082;-80
2023/12/30 03:39:12;;;;;;;74.75;28.15;;;1.60;99.90;;;;;;6201986;23;20009;-81
2023/12/30 03:41:37;;;;;;;84.18;29.50;;;1.60;99.90;;;;;;6201594;23;20117;-80
2023/12/30 03:44:03;;;;;;;73.57;27.98;;;1.50;99.90;;;;;;6200276;23;20018;-80
2023/12/30 03:46:30;;;;;;;59.33;28.65;;;1.50;99.90;;;;;;6202498;23;20078;-73
2023/12/30 03:48:56;;;;;;;78.05;30.80;;;1.50;99.90;;;;;;6201055;23;20066;-72
2023/12/30 03:51:22;;;;;;;50.67;26.40;;;1.60;99.90;;;;;;6200999;23;20008;-73
2023/12/30 03:53:47;;;;;;;60.85;24.88;;;1.50;99.90;;;;;;6201366;23;20076;-73
2023/12/30 03:56:13;;;;;;;57.40;28.58;;;1.50;99.90;;;;;;6202114;23;20007;-72
2023/12/30 03:58:38;;;;;;;60.17;28.95;;;1.20;99.90;;;;;;6200859;23;20012;-73
2023/12/30 04:01:04;;;;;;;63.65;29.52;;;1.10;99.90;;;;;;6198945;23;20374;-73
2023/12/30 04:03:30;;;;;;;40.25;26.67;;;1.10;99.90;;;;;;6201946;23;20009;-73
2023/12/30 04:05:56;;;;;;;58.33;30.08;;;1.00;99.90;;;;;;6198487;23;20004;-73
2023/12/30 04:08:21;;;;;;;59.65;32.97;;;1.10;99.90;;;;;;6202221;23;20008;-73
2023/12/30 04:10:47;;;;;;;47.95;29.00;;;1.00;99.90;;;;;;6201992;23;20075;-73
2023/12/30 04:13:13;;;;;;;50.22;29.45;;;1.10;99.90;;;;;;6200563;23;20394;-72
2023/12/30 04:15:38;;;;;;;53.78;30.90;;;1.00;99.90;;;;;;6202418;23;20005;-73
2023/12/30 04:18:04;;;;;;;49.40;29.00;;;1.00;99.90;;;;;;6198899;23;20012;-73
2023/12/30 04:20:30;;;;;;;40.83;26.30;;;1.00;99.90;;;;;;6201824;23;20242;-73
2023/12/30 04:22:56;;;;;;;49.20;28.35;;;1.10;99.90;;;;;;6199279;23;20116;-80
2023/12/30 04:25:22;;;;;;;49.30;28.13;;;1.20;99.90;;;;;;6201218;23;20004;-80
2023/12/30 04:27:47;;;;;;;61.50;28.88;;;1.20;99.90;;;;;;6201933;23;20595;-80
2023/12/30 04:30:13;;;;;;;46.47;27.30;;;1.20;99.90;;;;;;6199841;23;20001;-80
2023/12/30 04:32:39;;;;;;;41.58;26.83;;;1.10;99.90;;;;;;6203577;23;20005;-80
2023/12/30 04:35:05;;;;;;;44.03;27.00;;;1.00;99.90;;;;;;6200303;23;20001;-80
2023/12/30 04:37:30;;;;;;;33.92;25.08;;;1.00;99.90;;;;;;6200607;23;20074;-79
2023/12/30 04:39:56;;;;;;;36.65;22.33;;;1.00;99.90;;;;;;6201675;23;20382;-80
2023/12/30 04:42:22;;;;;;;30.90;20.88;;;1.10;99.90;;;;;;6201688;23;20143;-79
2023/12/30 04:44:48;;;;;;;28.85;20.27;;;1.30;99.90;;;;;;6200722;23;20013;-80
2023/12/30 04:47:13;;;;;;;29.52;19.83;;;1.50;99.90;;;;;;6201513;23;20015;-79
2023/12/30 04:49:39;;;;;;;41.85;21.25;;;1.60;99.90;;;;;;6200488;23;20342;-79
2023/12/30 04:52:05;;;;;;;35.38;23.83;;;1.70;99.90;;;;;;6200154;23;20011;-79
2023/12/30 04:54:30;;;;;;;30.48;21.25;;;1.60;99.90;;;;;;6200223;23;20000;-79
2023/12/30 04:56:56;;;;;;;32.33;21.65;;;1.50;99.90;;;;;;6201244;23;20004;-80
2023/12/30 04:59:22;;;;;;;27.77;20.50;;;1.60;99.90;;;;;;6201615;23;20017;-73
2023/12/30 05:01:47;;;;;;;24.15;18.33;;;1.60;99.90;;;;;;6199025;23;20007;-73
2023/12/30 05:04:13;;;;;;;31.48;21.92;;;1.80;99.90;;;;;;6201050;23;20009;-73
2023/12/30 05:06:38;;;;;;;28.77;20.92;;;1.80;99.90;;;;;;6199690;23;20004;-73
2023/12/30 05:09:05;;;;;;;33.75;21.42;;;1.80;99.90;;;;;;6201441;23;20721;-73
2023/12/30 05:11:30;;;;;;;34.08;21.00;;;1.80;99.90;;;;;;6197564;23;20009;-73
2023/12/30 05:13:56;;;;;;;34.03;25.30;;;1.80;99.90;;;;;;6198925;23;20015;-73
2023/12/30 05:16:22;;;;;;;31.67;23.27;;;1.80;99.90;;;;;;6199411;23;20013;-73
2023/12/30 05:18:47;;;;;;;33.65;22.77;;;1.70;99.90;;;;;;6201405;23;20072;-73
2023/12/30 05:21:17;;;;;;;36.38;22.63;;;1.70;99.90;;;;;;6201034;23;20012;-73
2023/12/30 05:23:43;;;;;;;33.88;22.75;;;1.70;99.90;;;;;;6201634;23;20346;-73
2023/12/30 05:26:12;;;;;;;37.33;22.45;;;1.70;99.90;;;;;;6198344;23;20007;-73
2023/12/30 05:28:37;;;;;;;33.80;22.65;;;1.70;99.90;;;;;;6201003;23;20079;-73
2023/12/30 05:31:03;;;;;;;33.33;22.23;;;1.70;99.90;;;;;;6200461;23;20039;-73
2023/12/30 05:33:29;;;;;;;32.15;22.30;;;1.70;99.90;;;;;;6201308;23;20452;-73
2023/12/30 05:35:55;;;;;;;45.92;28.20;;;1.80;99.90;;;;;;6201348;23;20005;-73
2023/12/30 05:38:21;;;;;;;43.67;28.45;;;1.90;99.90;;;;;;6200897;23;20024;-73
2023/12/30 05:40:46;;;;;;;38.95;26.48;;;1.80;99.90;;;;;;6201076;23;20008;-73
2023/12/30 05:43:14;;;;;;;38.65;23.13;;;1.80;99.90;;;;;;6199971;23;20004;-73
2023/12/30 05:45:41;;;;;;;46.05;24.67;;;1.70;99.90;;;;;;6199663;23;20039;-73
2023/12/30 05:48:08;;;;;;;40.60;24.55;;;1.50;99.90;;;;;;6200157;23;20342;-73
2023/12/30 05:50:33;;;;;;;44.97;24.23;;;1.20;99.90;;;;;;6201236;23;20028;-73
2023/12/30 05:52:59;;;;;;;55.83;24.27;;;1.10;99.90;;;;;;6200248;23;20114;-73
2023/12/30 05:55:25;;;;;;;36.88;23.70;;;1.10;99.90;;;;;;6200950;23;20078;-73
2023/12/30 05:57:51;;;;;;;52.80;24.10;;;1.20;99.90;;;;;;6200566;23;20076;-73
2023/12/30 06:00:19;;;;;;;45.47;25.45;;;1.30;99.90;;;;;;6198942;23;20051;-72
2023/12/30 06:02:45;;;;;;;49.45;24.17;;;1.30;99.90;;;;;;6199823;23;20461;-73
2023/12/30 06:05:11;;;;;;;45.35;24.08;;;1.30;99.90;;;;;;6200344;23;20028;-73
2023/12/30 06:07:39;;;;;;;41.08;22.38;;;1.20;99.90;;;;;;6201120;23;20039;-73
2023/12/30 06:10:07;;;;;;;48.67;24.20;;;1.30;99.90;;;;;;6201267;23;20004;-72
2023/12/30 06:12:32;;;;;;;47.05;23.50;;;1.30;99.90;;;;;;6201041;23;20028;-73
2023/12/30 06:14:58;;;;;;;40.67;22.45;;;1.30;99.90;;;;;;6201504;23;20011;-73
2023/12/30 06:17:23;;;;;;;35.00;23.42;;;1.30;99.90;;;;;;6198490;23;20011;-73
2023/12/30 06:19:49;;;;;;;41.20;22.55;;;1.30;99.90;;;;;;6201008;23;20012;-73
2023/12/30 06:22:15;;;;;;;38.35;19.65;;;1.40;99.90;;;;;;6200467;23;20560;-73
2023/12/30 06:24:40;;;;;;;55.53;21.50;;;1.20;99.90;;;;;;6200340;23;20012;-72
2023/12/30 06:27:06;;;;;;;45.10;21.98;;;1.20;99.90;;;;;;6200453;23;20031;-73
2023/12/30 06:29:31;;;;;;;39.28;22.05;;;1.10;99.90;;;;;;6201173;23;20028;-73
2023/12/30 06:31:57;;;;;;;39.30;23.58;;;1.10;99.90;;;;;;6199576;23;20039;-82
2023/12/30 06:34:23;;;;;;;59.75;24.35;;;1.10;99.90;;;;;;6203586;23;20030;-81
2023/12/30 06:36:49;;;;;;;64.72;22.70;;;1.10;99.90;;;;;;6200528;23;20011;-80
2023/12/30 06:39:17;;;;;;;79.70;25.15;;;1.20;99.90;;;;;;6201101;23;20501;-80
2023/12/30 06:41:43;;;;;;;92.78;24.88;;;1.00;99.90;;;;;;6201543;23;20093;-80
2023/12/30 06:44:08;;;;;;;50.05;22.33;;;0.80;99.90;;;;;;6200128;23;20083;-80
2023/12/30 06:46:34;;;;;;;70.10;21.88;;;0.80;99.90;;;;;;6201006;23;20450;-79
2023/12/30 06:49:00;;;;;;;63.97;23.67;;;0.90;99.90;;;;;;6198877;23;20090;-79
2023/12/30 06:51:27;;;;;;;74.18;21.92;;;0.90;99.90;;;;;;6198090;23;20339;-79
2023/12/30 06:53:53;;;;;;;30.60;19.50;;;0.90;99.90;;;;;;6201799;23;20377;-79
2023/12/30 06:56:19;;;;;;;61.35;19.23;;;1.00;99.90;;;;;;6200477;23;20062;-80
2023/12/30 06:58:45;;;;;;;54.72;23.98;;;0.90;99.90;;;;;;6199682;23;20016;-79
2023/12/30 07:01:14;;;;;;;54.88;22.17;;;0.90;99.90;;;;;;6196580;23;20011;-79
2023/12/30 07:03:40;;;;;;;34.40;22.45;;;1.00;99.90;;;;;;6198510;23;20071;-79
2023/12/30 07:06:06;;;;;;;72.35;23.48;;;1.00;99.90;;;;;;6204931;23;20688;-80
2023/12/30 07:08:31;;;;;;;50.55;20.08;;;1.00;99.90;;;;;;6199916;23;20066;-72
2023/12/30 07:10:57;;;;;;;35.42;19.65;;;1.10;99.90;;;;;;6199378;23;20080;-73
2023/12/30 07:13:23;;;;;;;39.65;22.92;;;1.20;99.90;;;;;;6193724;23;20131;-72
2023/12/30 07:15:50;;;;;;;57.65;34.25;;;1.30;99.90;;;;;;6199134;23;20445;-73
2023/12/30 07:18:17;;;;;;;78.90;44.95;;;1.40;99.90;;;;;;6198095;23;20300;-72
2023/12/30 07:20:42;;;;;;;106.30;63.40;;;1.50;99.90;;;;;;6199847;23;20127;-73
2023/12/30 07:23:08;;;;;;;112.20;68.43;;;1.60;99.90;;;;;;6200621;23;20000;-74
2023/12/30 07:25:34;;;;;;;210.98;134.65;;;1.70;99.90;;;;;;6199613;23;20005;-70
2023/12/30 07:27:59;;;;;;;65.68;44.58;;;1.80;99.90;;;;;;6198516;23;20396;-73
2023/12/30 07:30:25;;;;;;;48.90;34.72;;;1.90;99.90;;;;;;6197809;23;20012;-72
2023/12/30 07:32:50;;;;;;;52.13;33.63;;;2.00;99.90;;;;;;6200392;23;20082;-72
2023/12/30 07:35:16;;;;;;;69.10;41.90;;;2.00;99.90;;;;;;6200441;23;20015;-72
2023/12/30 07:37:43;;;;;;;62.15;37.40;;;2.10;99.90;;;;;;6202010;23;20202;-72
2023/12/30 07:40:09;;;;;;;50.78;31.35;;;2.00;99.90;;;;;;6200369;23;20100;-72
2023/12/30 07:42:35;;;;;;;49.75;34.03;;;2.10;99.90;;;;;;6200046;23;20001;-72
2023/12/30 07:45:01;;;;;;;41.78;29.27;;;2.10;99.90;;;;;;6200997;23;20463;-71
2023/12/30 07:47:27;;;;;;;32.65;24.45;;;2.10;99.90;;;;;;6198781;23;20048;-71
2023/12/30 07:49:52;;;;;;;27.77;19.55;;;2.20;99.90;;;;;;6199980;23;20031;-72
2023/12/30 07:52:18;;;;;;;27.08;17.80;;;2.30;99.90;;;;;;6196160;23;20075;-71
2023/12/30 07:54:44;;;;;;;21.33;16.55;;;2.40;99.90;;;;;;6200496;23;20009;-71
2023/12/30 07:57:09;;;;;;;21.73;16.70;;;2.50;99.90;;;;;;6199971;23;20005;-70
2023/12/30 07:59:35;;;;;;;65.57;17.67;;;2.60;99.90;;;;;;6201298;23;20009;-69
2023/12/30 08:02:01;;;;;;;36.90;21.10;;;2.60;99.90;;;;;;6201913;23;20000;-70
2023/12/30 08:04:26;;;;;;;23.95;19.55;;;2.70;99.90;;;;;;6200707;23;20009;-74
2023/12/30 08:06:53;;;;;;;24.02;17.30;;;2.70;99.90;;;;;;6201995;23;20011;-76
2023/12/30 08:09:18;;;;;;;56.05;34.25;;;2.70;99.90;;;;;;6204424;23;20011;-73
2023/12/30 08:11:44;;;;;;;31.42;21.80;;;2.80;99.90;;;;;;6201072;23;20084;-73
2023/12/30 08:14:10;;;;;;;23.92;18.33;;;2.80;99.90;;;;;;6202825;23;20057;-75
2023/12/30 08:16:36;;;;;;;20.55;15.90;;;2.80;99.90;;;;;;6202945;23;20009;-74
2023/12/30 08:19:02;;;;;;;20.92;16.00;;;2.80;99.90;;;;;;6201218;23;20017;-73
2023/12/30 08:21:28;;;;;;;16.20;14.05;;;2.80;99.90;;;;;;6203208;23;20223;-74
2023/12/30 08:23:56;;;;;;;20.98;14.88;;;2.70;99.90;;;;;;6200175;23;20457;-74
2023/12/30 08:26:22;;;;;;;35.65;25.05;;;2.80;99.90;;;;;;6201865;23;20023;-74
2023/12/30 08:28:48;;;;;;;67.20;39.47;;;2.90;99.90;;;;;;6199529;23;20015;-74
2023/12/30 08:31:13;;;;;;;23.02;18.77;;;3.00;99.90;;;;;;6191396;23;20072;-74
2023/12/30 08:33:40;;;;;;;26.10;18.52;;;3.00;99.90;;;;;;6200500;23;20008;-73
2023/12/30 08:36:06;;;;;;;21.17;15.00;;;3.10;99.90;;;;;;6200563;23;20008;-74
2023/12/30 08:38:32;;;;;;;19.17;15.10;;;3.20;99.90;;;;;;6202667;23;20304;-68
2023/12/30 08:40:58;;;;;;;16.40;14.02;;;3.30;99.90;;;;;;6203185;23;20342;-70
2023/12/30 08:43:24;;;;;;;16.80;14.55;;;3.40;99.90;;;;;;6202285;23;20012;-70
2023/12/30 08:45:49;;;;;;;17.15;13.90;;;3.40;99.90;;;;;;6203165;23;20354;-70
2023/12/30 08:48:15;;;;;;;15.48;13.35;;;3.40;99.90;;;;;;6201572;23;20431;-69
2023/12/30 08:50:41;;;;;;;16.65;14.85;;;3.50;99.90;;;;;;6201362;23;20005;-70
2023/12/30 08:53:07;;;;;;;22.85;20.08;;;3.50;99.90;;;;;;6198459;23;20009;-69
2023/12/30 08:55:32;;;;;;;36.40;31.52;;;3.50;99.90;;;;;;6202634;23;20041;-69
2023/12/30 08:57:58;;;;;;;22.13;18.08;;;3.50;99.90;;;;;;6201063;23;20508;-72
2023/12/30 09:00:24;;;;;;;30.60;24.63;;;3.50;99.90;;;;;;6200497;23;20005;-73
2023/12/30 09:02:49;;;;;;;22.95;19.10;;;3.50;99.90;;;;;;6200203;23;20008;-73
2023/12/30 09:05:18;;;;;;;23.05;18.23;;;3.60;99.90;;;;;;6201305;23;20689;-74
2023/12/30 09:07:45;;;;;;;21.00;17.88;;;3.70;99.90;;;;;;6196751;23;20051;-74
2023/12/30 09:10:11;;;;;;;20.65;16.55;;;4.00;99.90;;;;;;6195523;23;19997;-74
2023/12/30 09:12:36;;;;;;;21.25;17.77;;;4.30;99.90;;;;;;6203201;23;20024;-74
2023/12/30 09:15:02;;;;;;;22.08;17.27;;;4.60;99.90;;;;;;6203919;23;20408;-73
2023/12/30 09:17:28;;;;;;;20.73;17.40;;;4.90;99.90;;;;;;6200474;23;20012;-70
2023/12/30 09:19:54;;;;;;;21.95;18.05;;;5.20;99.90;;;;;;6197609;23;20330;-70
2023/12/30 09:22:19;;;;;;;19.00;15.95;;;5.70;99.90;;;;;;6199278;23;20035;-70
2023/12/30 09:24:45;;;;;;;20.50;17.13;;;6.00;99.90;;;;;;6202126;23;20412;-70
2023/12/30 09:27:11;;;;;;;19.58;17.13;;;6.20;99.90;;;;;;6202491;23;20008;-70
2023/12/30 09:29:37;;;;;;;23.27;17.83;;;6.30;99.90;;;;;;6201783;23;20015;-70
2023/12/30 09:32:02;;;;;;;18.35;15.32;;;6.30;99.90;;;;;;6203228;23;20004;-70
2023/12/30 09:34:29;;;;;;;19.58;16.10;;;6.30;99.90;;;;;;6210470;23;20008;-71
2023/12/30 09:36:55;;;;;;;16.80;14.95;;;6.30;99.90;;;;;;6206891;23;20100;-70
2023/12/30 09:39:20;;;;;;;16.10;13.68;;;6.30;99.90;;;;;;6205678;23;20060;-70
2023/12/30 09:41:46;;;;;;;26.80;16.40;;;6.40;99.90;;;;;;6207587;23;20008;-69
2023/12/30 09:44:12;;;;;;;25.67;15.52;;;6.40;99.90;;;;;;6202380;23;20541;-70
2023/12/30 09:46:40;;;;;;;21.13;16.35;;;6.30;99.90;;;;;;6202504;23;20036;-70
2023/12/30 09:49:07;;;;;;;16.70;14.63;;;6.30;99.90;;;;;;6200743;23;20003;-70
2023/12/30 09:51:33;;;;;;;15.75;12.38;;;6.30;99.90;;;;;;6200653;23;20434;-70
2023/12/30 09:53:59;;;;;;;25.92;18.15;;;6.30;99.90;;;;;;6202073;23;20000;-70
2023/12/30 09:56:26;;;;;;;31.23;20.48;;;6.30;99.90;;;;;;6200556;23;20131;-71
2023/12/30 09:58:53;;;;;;;22.67;16.05;;;6.30;99.90;;;;;;6198323;23;20055;-71
2023/12/30 10:01:20;;;;;;;21.33;16.70;;;6.30;99.90;;;;;;6200668;23;20009;-71
2023/12/30 10:03:46;;;;;;;19.05;15.40;;;6.40;99.90;;;;;;6202779;23;20035;-70
2023/12/30 10:06:14;;;;;;;12.30;9.38;;;6.60;99.90;;;;;;6200085;23;19997;-70
2023/12/30 10:08:43;;;;;;;10.98;8.60;;;7.10;99.90;;;;;;6202196;23;20011;-71
2023/12/30 10:11:09;;;;;;;13.00;10.43;;;7.50;99.90;;;;;;6200661;23;20020;-70
2023/12/30 10:13:38;;;;;;;29.25;25.17;;;7.70;99.90;;;;;;6202544;23;20449;-71
2023/12/30 10:16:05;;;;;;;15.60;13.98;;;7.90;99.90;;;;;;6200554;23;20005;-73
2023/12/30 10:18:38;;;;;;;9.82;8.18;;;8.10;99.90;;;;;;6202469;23;20016;-72
2023/12/30 10:21:04;;;;;;;33.88;24.75;;;8.40;99.90;;;;;;6202489;23;20451;-73
2023/12/30 10:23:34;;;;;;;10.10;8.15;;;8.50;99.90;;;;;;6200444;23;20411;-72
2023/12/30 10:26:01;;;;;;;51.67;40.20;;;8.60;99.90;;;;;;6203037;23;19997;-72
2023/12/30 10:28:27;;;;;;;29.92;22.13;;;8.70;99.90;;;;;;6205052;23;20036;-72
2023/12/30 10:31:03;;;;;;;36.42;26.40;;;8.70;99.90;;;;;;6208617;23;20001;-72
2023/12/30 10:33:29;;;;;;;12.93;10.55;;;8.70;99.90;;;;;;6211881;23;20009;-73
2023/12/30 10:35:56;;;;;;;39.83;36.03;;;8.80;99.90;;;;;;6211555;23;20007;-72
2023/12/30 10:38:23;;;;;;;31.52;23.83;;;8.80;99.90;;;;;;6207674;23;20027;-72
2023/12/30 10:40:50;;;;;;;9.63;7.25;;;8.80;99.90;;;;;;6211756;23;20009;-73
2023/12/30 10:43:17;;;;;;;4.70;4.30;;;8.80;99.90;;;;;;6208185;23;20011;-72
2023/12/30 10:45:42;;;;;;;13.25;10.00;;;8.90;99.90;;;;;;6209056;23;20020;-72
2023/12/30 10:48:08;;;;;;;10.95;9.27;;;9.10;99.90;;;;;;6212540;23;20121;-73
2023/12/30 10:50:38;;;;;;;21.73;14.85;;;9.20;99.90;;;;;;6210953;23;20032;-72
2023/12/30 10:53:14;;;;;;;6.28;4.72;;;9.30;99.90;;;;;;6206674;23;20093;-72
2023/12/30 10:55:48;;;;;;;5.55;4.47;;;9.40;99.90;;;;;;6212128;23;20036;-72
2023/12/30 10:58:19;;;;;;;5.65;4.70;;;9.50;99.90;;;;;;6209948;23;20689;-72
2023/12/30 11:00:59;;;;;;;7.80;5.43;;;9.60;99.90;;;;;;6210905;23;20008;-72
2023/12/30 11:03:26;;;;;;;7.53;6.18;;;9.70;99.90;;;;;;6211364;23;20088;-72
2023/12/30 11:06:01;;;;;;;9.25;7.45;;;9.70;99.90;;;;;;6210325;23;20079;-72
2023/12/30 11:08:28;;;;;;;7.25;6.20;;;9.80;99.90;;;;;;6204571;23;20028;-71
2023/12/30 11:10:54;;;;;;;13.77;8.77;;;9.80;99.90;;;;;;6213023;23;20013;-72
2023/12/30 11:13:20;;;;;;;6.93;5.82;;;9.90;99.90;;;;;;6213556;23;20057;-72
2023/12/30 11:15:45;;;;;;;7.05;5.63;;;9.90;99.90;;;;;;6214865;23;20008;-73
2023/12/30 11:18:14;;;;;;;9.00;6.72;;;9.90;99.90;;;;;;6212854;23;20009;-72
2023/12/30 11:20:46;;;;;;;6.95;5.90;;;9.90;99.90;;;;;;6208133;23;20381;-72
2023/12/30 11:23:14;;;;;;;8.10;5.95;;;9.90;99.90;;;;;;6212032;23;20001;-70
2023/12/30 11:25:45;;;;;;;6.72;6.03;;;9.90;99.90;;;;;;6210461;23;20362;-71
2023/12/30 11:28:22;;;;;;;14.30;10.77;;;9.90;99.90;;;;;;6208250;23;20005;-72
2023/12/30 11:30:58;;;;;;;5.80;4.35;;;9.90;99.90;;;;;;6203088;23;20430;-69
2023/12/30 11:33:24;;;;;;;6.43;5.78;;;10.00;99.90;;;;;;6197425;23;20008;-68
2023/12/30 11:35:52;;;;;;;5.82;4.95;;;10.10;99.90;;;;;;6198883;23;20431;-68
2023/12/30 11:38:19;;;;;;;6.03;4.93;;;10.10;99.90;;;;;;6196550;23;20043;-69
2023/12/30 11:40:51;;;;;;;6.07;5.00;;;10.20;99.90;;;;;;6201195;23;20004;-69
2023/12/30 11:43:17;;;;;;;6.97;5.80;;;10.20;99.90;;;;;;6200242;23;20720;-69
2023/12/30 11:45:43;;;;;;;4.72;4.25;;;10.20;99.90;;;;;;6201267;23;20055;-68
2023/12/30 11:48:09;;;;;;;6.88;5.40;;;10.20;99.90;;;;;;6194511;23;20008;-69
2023/12/30 11:50:35;;;;;;;8.45;7.53;;;10.20;99.90;;;;;;6199336;23;20005;-69
2023/12/30 11:53:01;;;;;;;7.80;6.50;;;10.20;99.90;;;;;;6200221;23;20008;-70
2023/12/30 11:55:28;;;;;;;13.05;8.00;;;10.20;99.90;;;;;;6198987;23;20062;-69
2023/12/30 11:57:54;;;;;;;4.13;3.42;;;10.30;99.90;;;;;;6203504;23;20178;-68
2023/12/30 12:00:24;;;;;;;29.35;26.25;;;10.30;99.90;;;;;;6201865;23;20075;-68
2023/12/30 12:02:50;;;;;;;12.45;9.32;;;10.40;99.90;;;;;;6202174;23;20008;-68
2023/12/30 12:05:16;;;;;;;2.20;2.00;;;10.40;99.90;;;;;;6200136;23;20750;-68
2023/12/30 12:07:42;;;;;;;3.17;2.35;;;10.50;99.90;;;;;;6194626;23;20080;-68
2023/12/30 12:10:08;;;;;;;9.82;1.23;;;10.70;99.90;;;;;;6200640;23;20004;-68
2023/12/30 12:12:39;;;;;;;1.50;1.00;;;10.80;99.90;;;;;;6202896;23;20031;-67
2023/12/30 12:15:07;;;;;;;4.35;1.38;;;10.90;99.90;;;;;;6201263;23;20015;-67
2023/12/30 12:17:34;;;;;;;2.05;1.10;;;11.00;99.90;;;;;;6202927;23;20004;-68
2023/12/30 12:20:00;;;;;;;1.55;0.60;;;11.10;99.90;;;;;;6198700;23;20020;-71
2023/12/30 12:22:26;;;;;;;5.15;2.25;;;11.10;99.90;;;;;;6201148;23;20001;-73
2023/12/30 12:24:52;;;;;;;3.22;0.98;;;11.20;99.90;;;;;;6197274;23;20070;-71
2023/12/30 12:27:20;;;;;;;4.45;0.98;;;11.30;99.90;;;;;;6200386;23;20501;-72
2023/12/30 12:29:48;;;;;;;1.58;0.80;;;11.30;99.90;;;;;;6201650;23;20409;-72
2023/12/30 12:32:15;;;;;;;1.25;1.15;;;11.30;99.90;;;;;;6194280;23;20000;-72